Weather at Rasm Al-Abboud Air Base

Public forecast

Using degrees Celsius for public forecast. Weather courtesy of forecast.io.

Closest aviation weather report (METAR) to Rasm Al-Abboud Air Base

Closest report is Aleppo International Airport, 17.4 nm (32.2 km) W.

2024/06/14 12:00 (retrieved 19 minutes ago)

OSAP 141200Z 33006KT CAVOK 42/10 Q1009

Closest aviation forecast (TAF) to Rasm Al-Abboud Air Base

Closest forecast is Gaziantep International Airport, 45.9 nm (85.0 km) N.

2024/06/14 12:03 (retrieved 16 minutes ago)

TAF LTAJ 141040Z 1412/1512 33012KT CAVOK TEMPO 1418/1422 33015G25KT BECMG 1422/1424 VRB02KT TEMPO 1505/1507 21012KT BECMG 1507/1509 24012KT TEMPO 1510/1512 24022KT